Time;durP1;ratioP1;P1;durP2;ratioP2;P2;SDS_P1;SDS_P2;PMS_P1;PMS_P2;Temp;Humidity;BMP_temperature;BMP_pressure;BME280_temperature;BME280_humidity;BME280_pressure;Samples;Min_cycle;Max_cycle;Signal;HPM_P1;HPM_P2
2021/11/19 00:01:50;;;;;;;6.13;1.70;;;;;;;;;;6229240;23;20004;-73
2021/11/19 00:04:16;;;;;;;3.72;1.38;;;;;;;;;;6230718;23;20350;-72
2021/11/19 00:06:43;;;;;;;7.53;2.13;;;;;;;;;;6229409;23;20011;-73
2021/11/19 00:09:09;;;;;;;5.68;2.20;;;;;;;;;;6230267;23;20008;-72
2021/11/19 00:11:37;;;;;;;6.90;3.08;;;;;;;;;;6230048;23;20000;-73
2021/11/19 00:14:04;;;;;;;3.83;1.90;;;;;;;;;;6230941;23;20336;-73
2021/11/19 00:16:31;;;;;;;5.25;1.60;;;;;;;;;;6231144;23;20069;-72
2021/11/19 00:18:58;;;;;;;3.33;1.33;;;;;;;;;;6230879;23;20023;-72
2021/11/19 00:21:26;;;;;;;2.47;1.33;;;;;;;;;;6229207;23;20356;-73
2021/11/19 00:23:52;;;;;;;4.47;1.10;;;;;;;;;;6230726;23;20008;-72
2021/11/19 00:26:19;;;;;;;5.82;1.30;;;;;;;;;;6230835;23;20001;-74
2021/11/19 00:28:45;;;;;;;3.90;1.30;;;;;;;;;;6203888;23;20038;-74
2021/11/19 00:31:12;;;;;;;4.22;1.40;;;;;;;;;;6230631;23;20007;-72
2021/11/19 00:33:38;;;;;;;5.00;1.52;;;;;;;;;;6229978;23;20464;-73
2021/11/19 00:36:07;;;;;;;4.15;1.20;;;;;;;;;;6229975;23;20031;-74
2021/11/19 00:38:34;;;;;;;7.68;1.33;;;;;;;;;;6228533;23;20433;-74
2021/11/19 00:41:01;;;;;;;7.25;2.03;;;;;;;;;;6229608;23;20043;-74
2021/11/19 00:43:28;;;;;;;4.50;1.48;;;;;;;;;;6231091;23;20020;-73
2021/11/19 00:45:54;;;;;;;6.50;1.60;;;;;;;;;;6230357;23;20053;-74
2021/11/19 00:48:22;;;;;;;3.08;1.38;;;;;;;;;;6228764;23;20344;-75
2021/11/19 00:50:51;;;;;;;6.15;1.33;;;;;;;;;;6231553;23;20004;-75
2021/11/19 00:53:17;;;;;;;4.93;1.42;;;;;;;;;;6232644;23;20008;-73
2021/11/19 00:55:43;;;;;;;3.92;1.25;;;;;;;;;;6233216;23;20004;-74
2021/11/19 00:58:10;;;;;;;4.18;1.33;;;;;;;;;;6232539;23;20000;-72
2021/11/19 01:00:45;;;;;;;4.80;1.60;;;;;;;;;;6204382;23;20088;-71
2021/11/19 01:03:12;;;;;;;4.80;1.60;;;;;;;;;;6232342;23;20047;-73
2021/11/19 01:05:38;;;;;;;3.72;1.30;;;;;;;;;;6232923;23;19996;-73
2021/11/19 01:08:05;;;;;;;3.17;1.23;;;;;;;;;;6233008;23;20004;-72
2021/11/19 01:10:32;;;;;;;2.88;1.20;;;;;;;;;;6231496;23;20008;-72
2021/11/19 01:12:59;;;;;;;5.90;1.48;;;;;;;;;;6230294;23;20008;-71
2021/11/19 01:15:34;;;;;;;4.32;1.35;;;;;;;;;;6232506;23;20404;-74
2021/11/19 01:18:03;;;;;;;5.38;1.52;;;;;;;;;;6232905;23;20012;-74
2021/11/19 01:20:32;;;;;;;6.63;1.75;;;;;;;;;;6230824;23;20645;-72
2021/11/19 01:23:00;;;;;;;4.57;1.48;;;;;;;;;;6232340;23;20102;-75
2021/11/19 01:25:27;;;;;;;5.28;1.95;;;;;;;;;;6205423;23;20000;-72
2021/11/19 01:27:54;;;;;;;5.85;1.17;;;;;;;;;;6232434;23;20083;-72
2021/11/19 01:30:22;;;;;;;5.55;1.65;;;;;;;;;;6232784;23;20406;-72
2021/11/19 01:32:48;;;;;;;3.22;1.30;;;;;;;;;;6204368;23;20034;-73
2021/11/19 01:35:15;;;;;;;6.88;1.40;;;;;;;;;;6232442;23;20004;-74
2021/11/19 01:37:41;;;;;;;4.80;1.08;;;;;;;;;;6230293;23;20012;-73
2021/11/19 01:40:09;;;;;;;7.05;1.38;;;;;;;;;;6231109;23;20004;-73
2021/11/19 01:42:37;;;;;;;3.40;1.38;;;;;;;;;;6230279;23;20024;-75
2021/11/19 01:45:06;;;;;;;4.40;1.60;;;;;;;;;;6232156;23;20558;-73
2021/11/19 01:47:33;;;;;;;4.97;1.30;;;;;;;;;;6232404;23;20003;-74
2021/11/19 01:50:00;;;;;;;5.03;1.58;;;;;;;;;;6205434;23;20015;-74
2021/11/19 01:52:35;;;;;;;5.00;1.52;;;;;;;;;;6231967;23;20463;-71
2021/11/19 01:55:05;;;;;;;5.10;1.50;;;;;;;;;;6230531;23;20012;-73
2021/11/19 01:57:43;;;;;;;3.05;1.50;;;;;;;;;;6205022;23;20011;-74
2021/11/19 02:00:09;;;;;;;2.55;1.48;;;;;;;;;;6231826;23;20000;-72
2021/11/19 02:02:38;;;;;;;2.88;1.20;;;;;;;;;;6231674;23;20022;-71
2021/11/19 02:05:04;;;;;;;5.35;1.40;;;;;;;;;;6232175;23;20004;-73
2021/11/19 02:07:32;;;;;;;7.25;1.75;;;;;;;;;;6232918;23;20008;-73
2021/11/19 02:10:01;;;;;;;4.93;1.10;;;;;;;;;;6234266;23;20004;-75
2021/11/19 02:12:33;;;;;;;5.78;1.52;;;;;;;;;;6233987;23;20008;-74
2021/11/19 02:15:02;;;;;;;4.82;1.10;;;;;;;;;;6234900;23;20004;-73
2021/11/19 02:17:29;;;;;;;6.05;1.48;;;;;;;;;;6237100;23;20023;-74
2021/11/19 02:19:57;;;;;;;5.05;1.58;;;;;;;;;;6236608;23;20317;-74
2021/11/19 02:22:25;;;;;;;2.67;1.52;;;;;;;;;;6237370;23;20454;-73
2021/11/19 02:24:55;;;;;;;4.43;1.30;;;;;;;;;;6210783;23;20314;-73
2021/11/19 02:27:22;;;;;;;3.33;1.02;;;;;;;;;;6211093;23;20031;-71
2021/11/19 02:29:52;;;;;;;4.78;1.20;;;;;;;;;;6238096;23;20032;-72
2021/11/19 02:32:23;;;;;;;4.32;1.40;;;;;;;;;;6236188;23;19996;-73
2021/11/19 02:34:50;;;;;;;7.28;1.48;;;;;;;;;;6237733;23;20121;-72
2021/11/19 02:37:35;;;;;;;4.13;1.25;;;;;;;;;;6211060;23;20004;-73
2021/11/19 02:40:04;;;;;;;3.38;1.20;;;;;;;;;;6209742;23;20012;-74
2021/11/19 02:42:35;;;;;;;4.70;1.13;;;;;;;;;;6237202;23;20011;-75
2021/11/19 02:45:02;;;;;;;3.97;1.20;;;;;;;;;;6210971;23;20016;-73
2021/11/19 02:47:29;;;;;;;3.63;1.10;;;;;;;;;;6235629;23;20004;-72
2021/11/19 02:49:57;;;;;;;8.27;1.45;;;;;;;;;;6237549;23;20447;-73
2021/11/19 02:52:29;;;;;;;3.60;1.38;;;;;;;;;;6237895;23;20032;-74
2021/11/19 02:54:55;;;;;;;;;;;;;;;;;;6239701;23;20000;-74
2021/11/19 02:57:22;;;;;;;4.55;1.17;;;;;;;;;;6239414;23;19982;-73
2021/11/19 02:59:48;;;;;;;2.70;1.50;;;;;;;;;;6236802;23;20010;-74
2021/11/19 03:02:19;;;;;;;4.85;1.40;;;;;;;;;;6238756;23;20456;-73
2021/11/19 03:04:48;;;;;;;3.13;1.05;;;;;;;;;;6238961;23;20007;-73
2021/11/19 03:07:14;;;;;;;3.78;1.00;;;;;;;;;;6238884;23;20046;-73
2021/11/19 03:09:43;;;;;;;4.22;1.05;;;;;;;;;;6237845;23;20007;-73
2021/11/19 03:12:10;;;;;;;6.80;1.55;;;;;;;;;;6209826;23;20036;-73
2021/11/19 03:14:36;;;;;;;4.95;1.40;;;;;;;;;;6238561;23;20004;-73
2021/11/19 03:17:04;;;;;;;5.38;1.60;;;;;;;;;;6238537;23;20008;-74
2021/11/19 03:19:30;;;;;;;4.18;1.23;;;;;;;;;;6239243;23;19996;-74
2021/11/19 03:21:56;;;;;;;6.95;1.55;;;;;;;;;;6238404;23;20004;-74
2021/11/19 03:24:23;;;;;;;3.65;1.40;;;;;;;;;;6238134;23;20008;-73
2021/11/19 03:26:50;;;;;;;4.20;1.40;;;;;;;;;;6236807;23;20000;-74
2021/11/19 03:29:16;;;;;;;5.72;1.17;;;;;;;;;;6238894;23;20008;-74
2021/11/19 03:31:43;;;;;;;5.30;1.25;;;;;;;;;;6238566;23;20000;-74
2021/11/19 03:34:10;;;;;;;8.85;1.60;;;;;;;;;;6238854;23;20071;-73
2021/11/19 03:36:41;;;;;;;2.55;1.10;;;;;;;;;;6237170;23;20424;-74
2021/11/19 03:39:07;;;;;;;2.67;1.10;;;;;;;;;;6238166;23;20004;-74
2021/11/19 03:41:36;;;;;;;8.13;1.50;;;;;;;;;;6211061;23;20086;-74
2021/11/19 03:44:05;;;;;;;3.78;1.33;;;;;;;;;;6238741;23;20016;-74
2021/11/19 03:46:46;;;;;;;6.88;1.60;;;;;;;;;;6238599;23;19996;-74
2021/11/19 03:49:13;;;;;;;5.00;1.70;;;;;;;;;;6211779;23;20026;-74
2021/11/19 03:51:42;;;;;;;4.18;1.40;;;;;;;;;;6236844;23;20000;-72
2021/11/19 03:54:09;;;;;;;2.45;1.42;;;;;;;;;;6212023;23;20774;-74
2021/11/19 03:56:36;;;;;;;6.20;1.42;;;;;;;;;;6238783;23;20000;-74
2021/11/19 03:59:03;;;;;;;5.15;1.15;;;;;;;;;;6238800;23;20008;-73
2021/11/19 04:01:32;;;;;;;5.30;2.03;;;;;;;;;;6238131;23;20007;-72
2021/11/19 04:03:58;;;;;;;7.30;1.52;;;;;;;;;;6229996;23;20069;-73
2021/11/19 04:06:25;;;;;;;4.80;1.30;;;;;;;;;;6232649;23;20750;-74
2021/11/19 04:08:52;;;;;;;4.45;1.15;;;;;;;;;;6231851;23;20078;-72
2021/11/19 04:11:19;;;;;;;4.68;1.33;;;;;;;;;;6229660;23;20360;-74
2021/11/19 04:13:45;;;;;;;4.38;1.45;;;;;;;;;;6227868;23;20000;-74
2021/11/19 04:16:16;;;;;;;3.88;1.90;;;;;;;;;;6229957;23;20012;-73
2021/11/19 04:18:43;;;;;;;2.70;1.30;;;;;;;;;;6229721;23;20054;-73
2021/11/19 04:21:09;;;;;;;3.63;1.20;;;;;;;;;;6228312;23;20008;-75
2021/11/19 04:23:36;;;;;;;5.60;1.40;;;;;;;;;;6229165;23;20008;-74
2021/11/19 04:26:04;;;;;;;4.70;1.20;;;;;;;;;;6229712;23;20092;-73
2021/11/19 04:28:30;;;;;;;5.07;1.55;;;;;;;;;;6230063;23;20008;-73
2021/11/19 04:30:57;;;;;;;4.07;1.20;;;;;;;;;;6229593;23;20454;-73
2021/11/19 04:33:23;;;;;;;7.03;1.40;;;;;;;;;;6227120;23;20008;-73
2021/11/19 04:35:52;;;;;;;4.13;1.23;;;;;;;;;;6227562;23;20061;-73
2021/11/19 04:38:18;;;;;;;5.30;1.60;;;;;;;;;;6229463;23;20008;-73
2021/11/19 04:40:45;;;;;;;6.53;1.80;;;;;;;;;;6228649;23;19997;-72
2021/11/19 04:43:12;;;;;;;5.78;1.70;;;;;;;;;;6229307;23;20020;-73
2021/11/19 04:45:38;;;;;;;5.82;1.50;;;;;;;;;;6229938;23;20109;-75
2021/11/19 04:48:05;;;;;;;7.10;1.77;;;;;;;;;;6227468;23;20004;-74
2021/11/19 04:50:33;;;;;;;9.13;2.05;;;;;;;;;;6230132;23;20081;-73
2021/11/19 04:52:59;;;;;;;5.88;1.90;;;;;;;;;;6229230;23;20306;-74
2021/11/19 04:55:27;;;;;;;4.65;1.45;;;;;;;;;;6229844;23;20008;-75
2021/11/19 04:57:53;;;;;;;9.02;1.60;;;;;;;;;;6229172;23;20012;-74
2021/11/19 05:00:40;;;;;;;5.20;1.33;;;;;;;;;;6229154;23;19997;-75
2021/11/19 05:03:09;;;;;;;4.07;1.40;;;;;;;;;;6227177;23;20052;-72
2021/11/19 05:05:36;;;;;;;4.60;1.73;;;;;;;;;;6202656;23;20004;-74
2021/11/19 05:08:03;;;;;;;6.35;1.45;;;;;;;;;;6229252;23;20502;-74
2021/11/19 05:10:30;;;;;;;5.40;1.42;;;;;;;;;;6228198;23;20002;-74
2021/11/19 05:12:57;;;;;;;5.65;1.40;;;;;;;;;;6227350;23;20220;-76
2021/11/19 05:15:23;;;;;;;3.40;1.55;;;;;;;;;;6228947;23;20004;-75
2021/11/19 05:17:49;;;;;;;5.07;1.63;;;;;;;;;;6229656;23;20083;-73
2021/11/19 05:20:17;;;;;;;3.28;1.27;;;;;;;;;;6229405;23;20086;-72
2021/11/19 05:22:43;;;;;;;4.32;1.38;;;;;;;;;;6229195;23;20008;-74
2021/11/19 05:25:11;;;;;;;4.45;1.77;;;;;;;;;;6228321;23;20008;-73
2021/11/19 05:27:38;;;;;;;3.90;1.52;;;;;;;;;;6228870;23;20058;-74
2021/11/19 05:30:05;;;;;;;8.57;1.33;;;;;;;;;;6229524;23;20028;-72
2021/11/19 05:32:31;;;;;;;4.50;1.30;;;;;;;;;;6227120;23;20359;-72
2021/11/19 05:34:58;;;;;;;2.72;1.40;;;;;;;;;;6202027;23;20008;-74
2021/11/19 05:37:24;;;;;;;6.72;1.13;;;;;;;;;;6227918;23;20011;-73
2021/11/19 05:39:51;;;;;;;5.82;1.95;;;;;;;;;;6229768;23;19996;-75
2021/11/19 05:42:17;;;;;;;5.07;1.45;;;;;;;;;;6230998;23;20023;-75
2021/11/19 05:44:43;;;;;;;2.80;1.08;;;;;;;;;;6230905;23;20341;-73
2021/11/19 05:47:09;;;;;;;4.20;1.90;;;;;;;;;;6229098;23;20004;-74
2021/11/19 05:49:36;;;;;;;2.20;1.40;;;;;;;;;;6231047;23;20084;-74
2021/11/19 05:52:04;;;;;;;3.55;1.85;;;;;;;;;;6230906;23;20302;-73
2021/11/19 05:54:31;;;;;;;4.93;1.30;;;;;;;;;;6230520;23;20015;-73
2021/11/19 05:56:57;;;;;;;2.97;1.23;;;;;;;;;;6229819;23;19993;-73
2021/11/19 05:59:23;;;;;;;3.83;1.33;;;;;;;;;;6230187;23;20324;-73
2021/11/19 06:01:49;;;;;;;5.63;1.75;;;;;;;;;;6231009;23;20004;-75
2021/11/19 06:04:16;;;;;;;4.60;1.30;;;;;;;;;;6228980;23;20084;-74
2021/11/19 06:06:43;;;;;;;6.20;1.40;;;;;;;;;;6230773;23;20569;-73
2021/11/19 06:09:15;;;;;;;6.55;1.50;;;;;;;;;;6229778;23;20008;-73
2021/11/19 06:11:41;;;;;;;;;;;;;;;;;;6203558;23;20008;-71
2021/11/19 06:14:16;;;;;;;4.60;1.40;;;;;;;;;;6205964;23;19931;-73
2021/11/19 06:16:51;;;;;;;3.33;1.23;;;;;;;;;;6204244;23;20104;-72
2021/11/19 06:19:19;;;;;;;7.88;1.67;;;;;;;;;;6232931;23;20000;-72
2021/11/19 06:21:51;;;;;;;6.32;1.60;;;;;;;;;;6232902;23;20014;-73
2021/11/19 06:24:20;;;;;;;3.20;1.42;;;;;;;;;;6233448;23;20004;-74
2021/11/19 06:26:46;;;;;;;7.15;1.50;;;;;;;;;;6233184;23;20038;-71
2021/11/19 06:29:13;;;;;;;3.70;1.55;;;;;;;;;;6231279;23;20000;-72
2021/11/19 06:31:41;;;;;;;11.45;2.00;;;;;;;;;;6233148;23;20079;-75
2021/11/19 06:34:08;;;;;;;5.38;1.75;;;;;;;;;;6233554;23;20004;-74
2021/11/19 06:36:34;;;;;;;2.40;1.85;;;;;;;;;;6233542;23;20559;-70
2021/11/19 06:39:01;;;;;;;5.78;1.83;;;;;;;;;;6231755;23;19996;-70
2021/11/19 06:41:28;;;;;;;3.75;1.60;;;;;;;;;;6232191;23;20001;-72
2021/11/19 06:43:54;;;;;;;5.57;2.83;;;;;;;;;;6233277;23;20012;-70
2021/11/19 06:46:21;;;;;;;6.10;1.92;;;;;;;;;;6231406;23;20429;-73
2021/11/19 06:48:48;;;;;;;2.35;1.23;;;;;;;;;;6230386;23;20000;-71
2021/11/19 06:51:15;;;;;;;6.07;1.85;;;;;;;;;;6228435;23;20004;-74
2021/11/19 06:53:41;;;;;;;3.72;1.70;;;;;;;;;;6230498;23;20035;-73
2021/11/19 06:56:08;;;;;;;6.72;2.25;;;;;;;;;;6203695;23;20325;-71
2021/11/19 06:58:35;;;;;;;5.30;1.50;;;;;;;;;;6230142;23;20011;-72
2021/11/19 07:01:02;;;;;;;5.22;1.58;;;;;;;;;;6230020;23;20818;-71
2021/11/19 07:03:28;;;;;;;7.45;1.73;;;;;;;;;;6228531;23;20013;-72
2021/11/19 07:05:55;;;;;;;5.85;1.83;;;;;;;;;;6230118;23;20093;-72
2021/11/19 07:08:21;;;;;;;5.55;2.13;;;;;;;;;;6228202;23;20012;-71
2021/11/19 07:10:49;;;;;;;4.25;1.70;;;;;;;;;;6227206;23;19996;-72
2021/11/19 07:13:16;;;;;;;5.00;1.77;;;;;;;;;;6230356;23;20004;-72
2021/11/19 07:15:42;;;;;;;3.90;1.25;;;;;;;;;;6230285;23;20074;-72
2021/11/19 07:18:09;;;;;;;4.20;1.42;;;;;;;;;;6230262;23;20022;-74
2021/11/19 07:20:35;;;;;;;9.30;1.75;;;;;;;;;;6228491;23;20061;-70
2021/11/19 07:23:02;;;;;;;3.28;1.58;;;;;;;;;;6229730;23;20618;-72
2021/11/19 07:25:30;;;;;;;2.95;1.48;;;;;;;;;;6230337;23;20004;-74
2021/11/19 07:27:57;;;;;;;5.72;1.55;;;;;;;;;;6230296;23;20006;-74
2021/11/19 07:30:32;;;;;;;4.03;1.70;;;;;;;;;;6228815;23;20004;-73
2021/11/19 07:32:58;;;;;;;5.20;1.52;;;;;;;;;;6230424;23;20004;-73
2021/11/19 07:35:24;;;;;;;3.95;1.45;;;;;;;;;;6229867;23;20087;-72
2021/11/19 07:37:50;;;;;;;3.85;1.55;;;;;;;;;;6230351;23;19996;-73
2021/11/19 07:40:18;;;;;;;4.25;1.50;;;;;;;;;;6228705;23;20004;-71
2021/11/19 07:42:44;;;;;;;9.45;1.80;;;;;;;;;;6228471;23;20383;-74
2021/11/19 07:45:11;;;;;;;4.57;1.52;;;;;;;;;;6229724;23;19996;-74
2021/11/19 07:47:38;;;;;;;4.72;1.75;;;;;;;;;;6229151;23;20000;-72
2021/11/19 07:50:06;;;;;;;11.63;5.03;;;;;;;;;;6230787;23;20011;-72
2021/11/19 07:52:32;;;;;;;8.35;3.42;;;;;;;;;;6227666;23;20004;-74
2021/11/19 07:54:58;;;;;;;7.35;2.10;;;;;;;;;;6229908;23;20011;-73
2021/11/19 07:57:25;;;;;;;5.93;1.85;;;;;;;;;;6230230;23;20006;-73
2021/11/19 07:59:51;;;;;;;4.03;2.15;;;;;;;;;;6229852;23;20073;-74
2021/11/19 08:02:17;;;;;;;10.48;6.25;;;;;;;;;;6227653;23;20073;-73
2021/11/19 08:04:43;;;;;;;9.48;2.67;;;;;;;;;;6230443;23;20531;-71
2021/11/19 08:07:10;;;;;;;10.77;2.78;;;;;;;;;;6227881;23;20228;-72
2021/11/19 08:09:36;;;;;;;4.75;1.65;;;;;;;;;;6226683;23;20030;-73
2021/11/19 08:12:02;;;;;;;6.13;1.77;;;;;;;;;;6228827;23;20156;-73
2021/11/19 08:14:29;;;;;;;5.55;2.75;;;;;;;;;;6229514;23;20083;-73
2021/11/19 08:16:56;;;;;;;6.70;3.47;;;;;;;;;;6229114;23;20018;-74
2021/11/19 08:19:27;;;;;;;6.00;2.30;;;;;;;;;;6227376;23;20007;-73
2021/11/19 08:21:55;;;;;;;3.85;2.40;;;;;;;;;;6229001;23;20688;-70
2021/11/19 08:24:22;;;;;;;7.10;2.70;;;;;;;;;;6228765;23;20019;-70
2021/11/19 08:26:50;;;;;;;4.75;2.22;;;;;;;;;;6200764;23;20004;-73
2021/11/19 08:29:19;;;;;;;6.20;2.40;;;;;;;;;;6226651;23;20000;-73
2021/11/19 08:31:46;;;;;;;7.03;2.55;;;;;;;;;;6228727;23;20028;-77
2021/11/19 08:34:12;;;;;;;8.38;2.92;;;;;;;;;;6229570;23;20011;-75
2021/11/19 08:36:38;;;;;;;5.32;2.25;;;;;;;;;;6228433;23;20000;-70
2021/11/19 08:39:06;;;;;;;6.22;2.60;;;;;;;;;;6226963;23;20000;-70
2021/11/19 08:41:32;;;;;;;4.07;2.13;;;;;;;;;;6228009;23;20004;-70
2021/11/19 08:43:59;;;;;;;5.53;2.28;;;;;;;;;;6228303;23;20108;-73
2021/11/19 08:46:30;;;;;;;6.30;2.45;;;;;;;;;;6227969;23;19996;-71
2021/11/19 08:48:57;;;;;;;8.98;2.88;;;;;;;;;;6226223;23;20343;-70
2021/11/19 08:51:24;;;;;;;4.60;2.60;;;;;;;;;;6231299;23;20000;-71
2021/11/19 08:53:52;;;;;;;7.47;2.58;;;;;;;;;;6205313;23;20004;-75
2021/11/19 08:56:18;;;;;;;8.30;2.90;;;;;;;;;;6231088;23;20075;-72
2021/11/19 08:58:45;;;;;;;3.83;2.88;;;;;;;;;;6230739;23;20008;-71
2021/11/19 09:01:13;;;;;;;6.28;2.53;;;;;;;;;;6229345;23;20564;-71
2021/11/19 09:03:40;;;;;;;3.53;2.40;;;;;;;;;;6204394;23;20779;-73
2021/11/19 09:06:08;;;;;;;4.47;2.55;;;;;;;;;;6230867;23;20016;-70
2021/11/19 09:08:35;;;;;;;5.88;2.30;;;;;;;;;;6230856;23;20105;-71
2021/11/19 09:11:01;;;;;;;5.78;2.30;;;;;;;;;;6228282;23;20043;-74
2021/11/19 09:13:30;;;;;;;3.88;2.38;;;;;;;;;;6233271;23;20007;-74
2021/11/19 09:15:57;;;;;;;4.53;2.42;;;;;;;;;;6233055;23;20023;-70
2021/11/19 09:18:32;;;;;;;4.07;2.30;;;;;;;;;;6232878;23;20107;-71
2021/11/19 09:21:28;;;;;;;6.60;2.70;;;;;;;;;;6230885;23;20000;-70
2021/11/19 09:23:55;;;;;;;5.25;2.90;;;;;;;;;;6233129;23;20023;-74
2021/11/19 09:26:33;;;;;;;7.50;3.78;;;;;;;;;;6233080;23;20012;-71
2021/11/19 09:29:02;;;;;;;6.60;2.72;;;;;;;;;;6234673;23;20079;-71
2021/11/19 09:31:28;;;;;;;5.78;2.78;;;;;;;;;;6235328;23;20464;-70
2021/11/19 09:33:54;;;;;;;6.55;3.28;;;;;;;;;;6232718;23;20002;-71
2021/11/19 09:36:20;;;;;;;7.57;3.00;;;;;;;;;;6233107;23;20491;-70
2021/11/19 09:38:47;;;;;;;6.05;2.63;;;;;;;;;;6233320;23;20125;-71
2021/11/19 09:41:36;;;;;;;5.43;2.70;;;;;;;;;;6231198;23;20011;-72
2021/11/19 09:44:11;;;;;;;3.35;2.50;;;;;;;;;;6232623;23;20012;-71
2021/11/19 09:46:46;;;;;;;4.70;2.50;;;;;;;;;;6231781;23;20000;-71
2021/11/19 09:49:36;;;;;;;8.35;2.90;;;;;;;;;;6231281;23;20557;-73
2021/11/19 09:52:08;;;;;;;5.78;2.40;;;;;;;;;;6216808;23;20673;-73
2021/11/19 09:54:46;;;;;;;4.28;2.30;;;;;;;;;;6231029;23;20007;-69
2021/11/19 09:57:31;;;;;;;5.82;3.85;;;;;;;;;;6232886;23;20000;-71
2021/11/19 10:00:12;;;;;;;8.68;5.15;;;;;;;;;;6232637;23;20559;-72
2021/11/19 10:02:45;;;;;;;6.43;3.92;;;;;;;;;;6231646;23;20051;-73
2021/11/19 10:05:26;;;;;;;6.78;3.00;;;;;;;;;;6230713;23;20004;-70
2021/11/19 10:08:01;;;;;;;3.72;2.80;;;;;;;;;;6232321;23;20036;-72
2021/11/19 10:10:51;;;;;;;4.63;2.90;;;;;;;;;;6231261;23;20020;-71
2021/11/19 10:13:20;;;;;;;4.60;2.72;;;;;;;;;;6232531;23;20070;-70
2021/11/19 10:16:05;;;;;;;5.53;2.88;;;;;;;;;;6230982;23;20050;-73
2021/11/19 10:18:50;;;;;;;7.18;2.95;;;;;;;;;;6232521;23;20016;-70
2021/11/19 10:21:18;;;;;;;7.47;3.08;;;;;;;;;;6232086;23;20004;-70
2021/11/19 10:23:50;;;;;;;5.50;2.67;;;;;;;;;;6230726;23;20065;-70
2021/11/19 10:26:21;;;;;;;5.78;2.97;;;;;;;;;;6232314;23;20452;-70
2021/11/19 10:28:48;;;;;;;;;;;;;;;;;;6233124;23;20004;-70
2021/11/19 10:31:17;;;;;;;6.35;3.15;;;;;;;;;;6206017;23;19900;-70
2021/11/19 10:33:45;;;;;;;5.65;3.33;;;;;;;;;;6232571;23;20004;-71
2021/11/19 10:36:27;;;;;;;7.07;2.80;;;;;;;;;;6229821;23;20008;-71
2021/11/19 10:39:11;;;;;;;3.63;2.70;;;;;;;;;;6231837;23;20101;-71
2021/11/19 10:41:56;;;;;;;9.32;3.30;;;;;;;;;;6230905;23;20500;-72
2021/11/19 10:44:41;;;;;;;5.00;2.75;;;;;;;;;;6232147;23;20124;-70
2021/11/19 10:47:19;;;;;;;7.15;3.05;;;;;;;;;;6228378;23;20011;-71
2021/11/19 10:50:04;;;;;;;4.13;2.80;;;;;;;;;;6229733;23;19996;-73
2021/11/19 10:52:36;;;;;;;10.00;2.90;;;;;;;;;;6232586;23;20054;-70
2021/11/19 10:55:11;;;;;;;4.40;2.75;;;;;;;;;;6230322;23;20004;-70
2021/11/19 10:57:50;;;;;;;6.85;2.85;;;;;;;;;;6232651;23;20004;-72
2021/11/19 11:00:34;;;;;;;4.88;2.95;;;;;;;;;;6232188;23;20007;-72
2021/11/19 11:03:08;;;;;;;5.82;3.22;;;;;;;;;;6232247;23;20374;-71
2021/11/19 11:05:35;;;;;;;6.03;2.42;;;;;;;;;;6230616;23;20071;-72
2021/11/19 11:08:13;;;;;;;5.35;2.90;;;;;;;;;;6231931;23;20412;-72
2021/11/19 11:10:48;;;;;;;6.72;3.10;;;;;;;;;;6231050;23;20068;-72
2021/11/19 11:13:22;;;;;;;3.88;2.53;;;;;;;;;;6231821;23;20008;-72
2021/11/19 11:15:53;;;;;;;5.68;2.83;;;;;;;;;;6232241;23;20076;-72
2021/11/19 11:18:24;;;;;;;4.72;2.75;;;;;;;;;;6203745;23;20496;-72
2021/11/19 11:20:55;;;;;;;7.60;3.10;;;;;;;;;;6231321;23;20000;-73
2021/11/19 11:23:40;;;;;;;4.43;2.92;;;;;;;;;;6231324;23;20123;-72
2021/11/19 11:26:09;;;;;;;4.10;3.00;;;;;;;;;;6231607;23;20004;-72
2021/11/19 11:28:39;;;;;;;7.07;3.40;;;;;;;;;;6232261;23;20000;-72
2021/11/19 11:31:14;;;;;;;3.97;2.92;;;;;;;;;;6231418;23;20050;-72
2021/11/19 11:33:58;;;;;;;5.18;3.35;;;;;;;;;;6230652;23;20594;-71
2021/11/19 11:36:37;;;;;;;4.03;2.90;;;;;;;;;;6229396;23;20301;-72
2021/11/19 11:39:11;;;;;;;5.68;3.20;;;;;;;;;;6229897;23;20004;-73
2021/11/19 11:41:47;;;;;;;5.45;3.55;;;;;;;;;;6230116;23;20059;-73
2021/11/19 11:44:17;;;;;;;4.75;3.03;;;;;;;;;;6228945;23;20110;-71
2021/11/19 11:46:50;;;;;;;6.63;3.50;;;;;;;;;;6230159;23;20496;-71
2021/11/19 11:49:32;;;;;;;5.22;3.30;;;;;;;;;;6231438;23;20008;-71
2021/11/19 11:52:18;;;;;;;5.85;3.40;;;;;;;;;;6230897;23;20016;-71
2021/11/19 11:54:57;;;;;;;7.10;3.42;;;;;;;;;;6231766;23;20432;-72
2021/11/19 11:57:29;;;;;;;6.50;3.50;;;;;;;;;;6229860;23;20433;-72
2021/11/19 12:00:11;;;;;;;4.05;3.22;;;;;;;;;;6231760;23;20004;-71
2021/11/19 12:02:50;;;;;;;4.85;3.55;;;;;;;;;;6231152;23;20004;-71
2021/11/19 12:05:35;;;;;;;5.93;3.15;;;;;;;;;;6231298;23;20006;-69
2021/11/19 12:08:19;;;;;;;5.80;3.20;;;;;;;;;;6229214;23;20007;-71
2021/11/19 12:10:51;;;;;;;5.40;2.95;;;;;;;;;;6226597;23;20001;-71
2021/11/19 12:13:41;;;;;;;3.40;2.80;;;;;;;;;;6229041;23;20095;-73
2021/11/19 12:16:26;;;;;;;5.28;3.17;;;;;;;;;;6213336;23;20008;-71
2021/11/19 12:18:56;;;;;;;6.90;3.22;;;;;;;;;;6227213;23;20047;-71
2021/11/19 12:21:28;;;;;;;4.93;2.90;;;;;;;;;;6228094;23;20008;-73
2021/11/19 12:24:04;;;;;;;5.88;2.90;;;;;;;;;;6229437;23;20016;-71
2021/11/19 12:26:33;;;;;;;4.22;3.10;;;;;;;;;;6227231;23;20083;-72
2021/11/19 12:29:18;;;;;;;7.68;3.40;;;;;;;;;;6229430;23;20577;-72
2021/11/19 12:31:56;;;;;;;3.60;2.75;;;;;;;;;;6227221;23;20130;-73
2021/11/19 12:34:31;;;;;;;4.75;2.78;;;;;;;;;;6228208;23;20091;-72
2021/11/19 12:37:01;;;;;;;5.70;3.28;;;;;;;;;;6228368;23;20012;-72
2021/11/19 12:39:29;;;;;;;5.53;3.72;;;;;;;;;;6228196;23;20552;-71
2021/11/19 12:42:18;;;;;;;4.43;3.05;;;;;;;;;;6228369;23;20011;-72
2021/11/19 12:44:47;;;;;;;6.57;3.35;;;;;;;;;;6227079;23;20368;-71
2021/11/19 12:47:25;;;;;;;4.32;2.83;;;;;;;;;;6230583;23;20535;-71
2021/11/19 12:49:59;;;;;;;5.93;3.33;;;;;;;;;;6231129;23;20061;-71
2021/11/19 12:52:34;;;;;;;4.78;3.03;;;;;;;;;;6229058;23;20004;-71
2021/11/19 12:55:10;;;;;;;9.80;3.88;;;;;;;;;;6230925;23;20004;-73
2021/11/19 12:57:40;;;;;;;4.63;3.25;;;;;;;;;;6230730;23;20058;-71
2021/11/19 13:00:14;;;;;;;5.13;3.10;;;;;;;;;;6230650;23;20725;-72
2021/11/19 13:02:43;;;;;;;4.80;2.90;;;;;;;;;;6230445;23;20054;-72
2021/11/19 13:05:12;;;;;;;3.55;2.92;;;;;;;;;;6230506;23;20379;-71
2021/11/19 13:07:44;;;;;;;4.22;2.97;;;;;;;;;;6228378;23;20003;-73
2021/11/19 13:10:16;;;;;;;4.00;2.92;;;;;;;;;;6228959;23;20390;-71
2021/11/19 13:13:02;;;;;;;3.80;3.28;;;;;;;;;;6230371;23;20008;-71
2021/11/19 13:15:29;;;;;;;4.75;3.05;;;;;;;;;;6230654;23;20023;-71
2021/11/19 13:18:14;;;;;;;4.03;2.90;;;;;;;;;;6203248;23;20024;-73
2021/11/19 13:20:46;;;;;;;4.78;2.70;;;;;;;;;;6228424;23;20007;-71
2021/11/19 13:23:31;;;;;;;6.50;3.25;;;;;;;;;;6228912;23;20016;-72
2021/11/19 13:25:59;;;;;;;4.90;2.67;;;;;;;;;;6228691;23;20321;-72
2021/11/19 13:28:52;;;;;;;8.10;3.55;;;;;;;;;;6202753;23;20083;-74
2021/11/19 13:31:21;;;;;;;5.13;3.65;;;;;;;;;;6217501;23;20030;-72
2021/11/19 13:34:06;;;;;;;4.95;3.35;;;;;;;;;;6227965;23;20094;-73
2021/11/19 13:36:43;;;;;;;4.70;3.30;;;;;;;;;;6230445;23;20058;-73
2021/11/19 13:39:27;;;;;;;7.22;3.25;;;;;;;;;;6230113;23;20004;-72
2021/11/19 13:42:00;;;;;;;5.45;3.28;;;;;;;;;;6229765;23;19996;-72
2021/11/19 13:44:44;;;;;;;4.38;2.85;;;;;;;;;;6230129;23;20023;-72
2021/11/19 13:47:26;;;;;;;4.47;3.00;;;;;;;;;;6228792;23;20496;-73
2021/11/19 13:50:00;;;;;;;4.22;3.10;;;;;;;;;;6230457;23;20469;-72
2021/11/19 13:52:29;;;;;;;7.47;3.30;;;;;;;;;;6229956;23;20433;-72
2021/11/19 13:55:13;;;;;;;6.30;3.10;;;;;;;;;;6230356;23;20008;-72
2021/11/19 13:57:41;;;;;;;21.27;3.80;;;;;;;;;;6229485;23;20058;-72
2021/11/19 14:00:17;;;;;;;5.10;3.33;;;;;;;;;;6227848;23;20004;-72
2021/11/19 14:02:43;;;;;;;10.10;3.20;;;;;;;;;;6230069;23;20078;-73
2021/11/19 14:05:20;;;;;;;9.32;3.45;;;;;;;;;;6230136;23;20479;-71
2021/11/19 14:08:05;;;;;;;5.95;4.00;;;;;;;;;;6230118;23;20000;-71
2021/11/19 14:10:34;;;;;;;6.80;2.95;;;;;;;;;;6225823;23;20246;-72
2021/11/19 14:13:03;;;;;;;7.90;2.85;;;;;;;;;;6229822;23;20004;-71
2021/11/19 14:15:32;;;;;;;6.75;3.20;;;;;;;;;;6230124;23;20000;-70
2021/11/19 14:24:27;;;;;;;10.75;3.45;;;;;;;;;;6136256;23;20096;-70
2021/11/19 14:27:26;;;;;;;3.90;2.97;;;;;;;;;;6208383;23;20113;-70
2021/11/19 14:29:58;;;;;;;7.68;3.30;;;;;;;;;;6206690;23;20503;-71
2021/11/19 14:32:32;;;;;;;5.38;3.33;;;;;;;;;;6201185;23;20614;-70
2021/11/19 14:35:01;;;;;;;7.00;2.85;;;;;;;;;;6229754;23;20333;-70
2021/11/19 14:37:32;;;;;;;4.85;3.25;;;;;;;;;;6229923;23;20007;-71
2021/11/19 14:40:11;;;;;;;7.22;3.30;;;;;;;;;;6202139;23;20019;-71
2021/11/19 14:42:39;;;;;;;4.95;3.20;;;;;;;;;;6228211;23;20008;-73
2021/11/19 14:45:15;;;;;;;4.88;3.03;;;;;;;;;;6229311;23;20032;-72
2021/11/19 14:47:48;;;;;;;6.93;4.05;;;;;;;;;;6230397;23;20684;-71
2021/11/19 14:53:01;;;;;;;4.47;3.15;;;;;;;;;;6227474;23;20019;-71
2021/11/19 14:55:27;;;;;;;7.00;3.05;;;;;;;;;;6229852;23;20004;-70
2021/11/19 14:57:58;;;;;;;5.50;3.22;;;;;;;;;;6229177;23;20000;-70
2021/11/19 15:00:30;;;;;;;5.95;3.45;;;;;;;;;;6231647;23;20562;-71
2021/11/19 15:02:56;;;;;;;;;;;;;;;;;;6232109;23;20095;-71
2021/11/19 15:05:23;;;;;;;5.05;3.42;;;;;;;;;;6231013;23;20488;-71
2021/11/19 15:07:54;;;;;;;6.20;3.50;;;;;;;;;;6229925;23;20004;-71
2021/11/19 15:10:42;;;;;;;9.30;4.23;;;;;;;;;;6230148;23;20027;-71
2021/11/19 15:13:26;;;;;;;5.05;3.40;;;;;;;;;;6231637;23;20004;-72